Time;durP1;ratioP1;P1;durP2;ratioP2;P2;SDS_P1;SDS_P2;PMS_P1;PMS_P2;Temp;Humidity;BMP_temperature;BMP_pressure;BME280_temperature;BME280_humidity;BME280_pressure;Samples;Min_cycle;Max_cycle;Signal;HPM_P1;HPM_P2
2022/09/12 00:01:24;;;;;;;60.15;51.22;;;23.10;69.00;;;;;;5001922;28;90987;-64
2022/09/12 00:03:55;;;;;;;60.97;51.47;;;23.10;68.90;;;;;;5010525;27;90984;-64
2022/09/12 00:06:27;;;;;;;60.75;51.60;;;23.00;68.90;;;;;;5000256;27;89543;-64
2022/09/12 00:08:55;;;;;;;61.05;51.50;;;23.10;69.00;;;;;;5014525;27;91364;-64
2022/09/12 00:11:20;;;;;;;61.65;51.33;;;23.00;69.00;;;;;;5006884;28;90772;-64
2022/09/12 00:13:46;;;;;;;60.78;51.22;;;23.00;69.00;;;;;;5010586;27;91323;-64
2022/09/12 00:16:21;;;;;;;60.53;51.10;;;23.00;69.00;;;;;;5008784;27;90218;-64
2022/09/12 00:18:47;;;;;;;60.00;50.88;;;23.00;68.70;;;;;;5004042;28;92390;-62
2022/09/12 00:21:14;;;;;;;60.22;51.50;;;23.10;68.90;;;;;;4997628;27;92071;-64
2022/09/12 00:23:40;;;;;;;61.30;51.25;;;23.00;68.70;;;;;;4995269;27;90676;-63
2022/09/12 00:26:06;;;;;;;61.03;51.42;;;23.00;68.80;;;;;;5001282;27;91183;-63
2022/09/12 00:28:34;;;;;;;60.72;51.35;;;23.10;68.90;;;;;;5001027;27;95271;-64
2022/09/12 00:31:04;;;;;;;62.03;51.53;;;23.10;68.90;;;;;;5003966;28;96004;-64
2022/09/12 00:33:30;;;;;;;59.58;50.95;;;23.00;68.80;;;;;;5007840;27;89781;-64
2022/09/12 00:35:56;;;;;;;61.00;51.60;;;23.00;68.80;;;;;;5005553;28;90925;-64
2022/09/12 00:38:21;;;;;;;60.17;51.17;;;23.00;68.80;;;;;;4996882;28;90924;-64
2022/09/12 00:40:48;;;;;;;60.28;51.22;;;23.00;68.80;;;;;;4996300;28;91550;-61
2022/09/12 00:43:34;;;;;;;60.17;51.10;;;23.00;68.70;;;;;;5005922;27;91247;-64
2022/09/12 00:46:09;;;;;;;61.40;51.40;;;22.90;68.80;;;;;;5008211;27;90974;-63
2022/09/12 00:48:42;;;;;;;59.95;51.15;;;23.00;68.90;;;;;;5003581;27;91193;-64
2022/09/12 00:51:09;;;;;;;60.80;51.13;;;22.90;68.80;;;;;;5004218;28;90833;-64
2022/09/12 00:53:36;;;;;;;60.38;51.30;;;22.90;68.70;;;;;;5007252;27;90188;-64
2022/09/12 00:56:02;;;;;;;59.97;51.10;;;22.90;68.60;;;;;;5011333;28;96324;-64
2022/09/12 00:58:35;;;;;;;59.90;51.15;;;22.90;68.90;;;;;;5004387;27;90665;-64
2022/09/12 01:01:02;;;;;;;60.78;51.20;;;22.90;69.00;;;;;;5009588;27;90952;-64
2022/09/12 01:03:28;;;;;;;60.75;51.28;;;22.90;69.00;;;;;;5009021;27;95993;-64
2022/09/12 01:06:25;;;;;;;60.63;51.53;;;22.90;68.80;;;;;;5017043;27;89620;-64
2022/09/12 01:08:53;;;;;;;61.20;51.33;;;22.90;69.00;;;;;;5006027;28;91997;-64
2022/09/12 01:11:20;;;;;;;60.03;51.08;;;22.90;69.00;;;;;;5006549;28;93432;-63
2022/09/12 01:13:48;;;;;;;60.53;51.00;;;22.90;68.70;;;;;;5004621;28;89930;-64
2022/09/12 01:16:14;;;;;;;60.28;51.45;;;22.90;68.60;;;;;;5001484;27;95311;-63
2022/09/12 01:19:11;;;;;;;60.28;51.25;;;22.90;69.30;;;;;;5007527;28;93197;-64
2022/09/12 01:22:01;;;;;;;61.08;51.35;;;22.90;68.40;;;;;;5004028;28;96567;-64
2022/09/12 01:24:53;;;;;;;60.55;51.20;;;22.90;68.60;;;;;;5004536;28;91967;-64
2022/09/12 01:27:40;;;;;;;59.92;51.03;;;22.90;68.50;;;;;;5004635;27;95936;-64
2022/09/12 01:30:12;;;;;;;60.83;51.55;;;22.90;68.60;;;;;;4998055;28;91004;-67
2022/09/12 01:33:09;;;;;;;60.40;51.47;;;22.80;68.60;;;;;;5005553;27;90890;-64
2022/09/12 01:35:49;;;;;;;60.80;51.25;;;22.80;68.80;;;;;;5000487;28;92561;-64
2022/09/12 01:38:33;;;;;;;60.28;51.25;;;22.80;68.50;;;;;;5002262;28;90182;-64
2022/09/12 01:40:58;;;;;;;61.30;51.22;;;22.90;68.40;;;;;;5008403;27;91018;-64
2022/09/12 01:43:27;;;;;;;61.03;51.70;;;22.90;68.40;;;;;;5003570;28;90915;-64
2022/09/12 01:46:16;;;;;;;59.67;50.97;;;22.90;68.30;;;;;;4998719;27;96165;-64
2022/09/12 01:49:01;;;;;;;59.83;51.25;;;22.80;68.20;;;;;;5004344;27;89650;-63
2022/09/12 01:51:37;;;;;;;60.22;51.00;;;22.90;68.20;;;;;;5002550;27;90338;-64
2022/09/12 01:54:24;;;;;;;60.80;50.83;;;22.90;68.20;;;;;;5000684;27;90961;-63
2022/09/12 01:56:54;;;;;;;59.72;51.22;;;22.80;68.30;;;;;;5004465;28;89892;-63
2022/09/12 01:59:27;;;;;;;59.88;51.08;;;22.80;68.40;;;;;;5006091;27;90234;-64
2022/09/12 02:02:06;;;;;;;59.78;51.08;;;22.70;68.50;;;;;;4999606;28;92028;-64
2022/09/12 02:04:39;;;;;;;59.92;51.05;;;22.80;68.00;;;;;;5008491;28;91777;-63
2022/09/12 02:07:10;;;;;;;60.38;51.20;;;22.80;68.10;;;;;;4997508;28;90028;-64
2022/09/12 02:09:53;;;;;;;60.42;51.47;;;22.80;68.30;;;;;;5004871;28;89972;-64
2022/09/12 02:12:25;;;;;;;60.25;51.03;;;22.70;68.20;;;;;;5005564;27;90574;-65
2022/09/12 02:14:58;;;;;;;60.83;50.95;;;22.70;68.30;;;;;;4999271;28;93592;-64
2022/09/12 02:17:25;;;;;;;60.63;51.00;;;22.80;68.40;;;;;;5009313;28;92255;-64
2022/09/12 02:19:58;;;;;;;59.17;50.72;;;22.80;68.10;;;;;;5008761;28;89691;-64
2022/09/12 02:22:28;;;;;;;60.63;51.42;;;22.80;68.10;;;;;;5003653;27;92214;-65
2022/09/12 02:24:58;;;;;;;61.25;51.08;;;22.80;68.10;;;;;;5004847;27;94040;-64
2022/09/12 02:27:41;;;;;;;59.40;50.87;;;22.80;68.00;;;;;;5007737;27;96857;-64
2022/09/12 02:30:08;;;;;;;59.88;50.92;;;22.80;68.20;;;;;;5009193;27;90308;-64
2022/09/12 02:32:41;;;;;;;60.28;50.90;;;22.70;68.20;;;;;;5009928;27;91648;-64
2022/09/12 02:35:17;;;;;;;59.00;50.35;;;22.70;68.10;;;;;;5005590;27;91028;-63
2022/09/12 02:38:00;;;;;;;60.08;50.85;;;22.70;68.10;;;;;;5011090;28;90125;-64
2022/09/12 02:40:27;;;;;;;59.60;51.03;;;22.70;68.00;;;;;;5003970;28;89991;-64
2022/09/12 02:42:53;;;;;;;59.53;50.63;;;22.70;68.00;;;;;;5004134;27;91256;-64
2022/09/12 02:45:21;;;;;;;59.55;51.03;;;22.70;68.00;;;;;;4999739;27;91727;-63
2022/09/12 02:47:52;;;;;;;59.97;50.78;;;22.60;68.10;;;;;;5004318;27;90376;-64
2022/09/12 02:50:18;;;;;;;59.35;50.92;;;22.70;68.00;;;;;;5008584;28;90230;-64
2022/09/12 02:52:44;;;;;;;60.13;50.90;;;22.70;68.10;;;;;;5011215;27;95415;-64
2022/09/12 02:55:10;;;;;;;59.30;50.88;;;22.70;67.90;;;;;;5004624;27;91446;-64
2022/09/12 02:57:36;;;;;;;60.47;50.75;;;22.70;67.90;;;;;;4997149;27;90701;-64
2022/09/12 03:00:05;;;;;;;59.78;51.00;;;22.60;68.00;;;;;;5002971;27;90364;-64
2022/09/12 03:02:36;;;;;;;60.33;50.85;;;22.60;68.10;;;;;;5002722;28;90554;-63
2022/09/12 03:05:13;;;;;;;;;;;22.60;68.10;;;;;;5003642;28;91066;-64
2022/09/12 03:07:54;;;;;;;59.55;50.80;;;22.60;68.00;;;;;;5006414;27;89605;-63
2022/09/12 03:10:20;;;;;;;59.00;50.85;;;22.60;67.90;;;;;;5010954;28;89352;-64
2022/09/12 03:13:23;;;;;;;60.28;50.65;;;22.60;67.80;;;;;;5012013;28;91318;-64
2022/09/12 03:15:55;;;;;;;59.88;50.85;;;22.60;67.70;;;;;;5005367;27;91199;-63
2022/09/12 03:18:46;;;;;;;59.92;50.97;;;22.60;67.90;;;;;;5009832;28;90497;-63
2022/09/12 03:21:24;;;;;;;59.70;50.92;;;22.60;67.80;;;;;;5009507;27;90034;-64
2022/09/12 03:24:14;;;;;;;60.33;50.97;;;22.60;67.80;;;;;;5006932;28;92054;-64
2022/09/12 03:27:23;;;;;;;59.88;51.30;;;22.60;67.80;;;;;;5007488;28;90529;-63
2022/09/12 03:29:50;;;;;;;59.78;51.08;;;22.60;67.80;;;;;;4995170;28;95053;-63
2022/09/12 03:32:16;;;;;;;60.25;50.83;;;22.50;67.60;;;;;;5008355;27;90141;-64
2022/09/12 03:34:41;;;;;;;60.67;50.85;;;22.60;67.80;;;;;;5014204;27;91342;-64
2022/09/12 03:37:07;;;;;;;60.05;50.67;;;22.60;67.60;;;;;;5010110;27;90997;-64
2022/09/12 03:39:33;;;;;;;59.97;51.03;;;22.50;67.60;;;;;;5006017;28;90133;-64
2022/09/12 03:41:58;;;;;;;59.58;50.78;;;22.50;67.70;;;;;;5006466;28;90055;-64
2022/09/12 03:44:24;;;;;;;59.60;50.95;;;22.50;67.70;;;;;;4991674;27;92303;-63
2022/09/12 03:46:50;;;;;;;59.17;50.88;;;22.50;67.70;;;;;;5000925;27;91918;-63
2022/09/12 03:49:16;;;;;;;59.35;50.72;;;22.50;67.70;;;;;;5007407;27;90227;-63
2022/09/12 03:51:42;;;;;;;58.83;50.70;;;22.50;67.60;;;;;;5012452;27;89555;-64
2022/09/12 03:54:09;;;;;;;60.78;50.88;;;22.40;67.60;;;;;;5006873;27;91238;-64
2022/09/12 03:56:35;;;;;;;60.05;50.95;;;22.50;67.50;;;;;;5003538;27;93367;-64
2022/09/12 03:59:04;;;;;;;59.95;50.72;;;22.50;67.40;;;;;;5008420;27;91694;-64
2022/09/12 04:01:30;;;;;;;59.88;50.78;;;22.50;67.30;;;;;;5001398;27;89273;-64
2022/09/12 04:03:55;;;;;;;59.58;51.10;;;22.50;67.40;;;;;;5006463;27;91227;-64
2022/09/12 04:06:21;;;;;;;59.30;50.88;;;22.50;67.30;;;;;;5009079;27;90697;-62
2022/09/12 04:08:52;;;;;;;59.10;50.42;;;22.50;67.30;;;;;;5005860;27;93462;-64
2022/09/12 04:11:20;;;;;;;60.00;51.25;;;22.50;67.20;;;;;;5007149;28;90580;-64
2022/09/12 04:13:46;;;;;;;59.88;50.92;;;22.50;67.30;;;;;;5009759;28;90153;-64
2022/09/12 04:16:14;;;;;;;59.75;50.72;;;22.40;67.30;;;;;;5003944;28;96038;-64
2022/09/12 04:18:40;;;;;;;60.35;50.95;;;22.40;67.40;;;;;;5005767;27;90616;-64
2022/09/12 04:21:11;;;;;;;61.25;50.92;;;22.40;67.40;;;;;;5003754;28;93656;-64
2022/09/12 04:23:37;;;;;;;60.05;51.00;;;22.40;67.30;;;;;;5005565;27;91325;-64
2022/09/12 04:26:05;;;;;;;58.95;50.60;;;22.40;67.30;;;;;;5006226;27;90358;-64
2022/09/12 04:28:32;;;;;;;59.70;50.80;;;22.40;67.20;;;;;;5002848;28;93405;-64
2022/09/12 04:31:02;;;;;;;59.50;51.13;;;22.40;67.20;;;;;;5013407;28;91048;-64
2022/09/12 04:33:28;;;;;;;59.83;50.90;;;22.40;67.30;;;;;;5000245;27;91405;-64
2022/09/12 04:35:54;;;;;;;59.22;50.75;;;22.40;67.30;;;;;;5004643;27;91029;-64
2022/09/12 04:38:19;;;;;;;58.83;50.58;;;22.40;67.40;;;;;;5012535;28;96450;-62
2022/09/12 04:40:46;;;;;;;59.33;51.05;;;22.40;67.40;;;;;;5004769;27;89918;-64
2022/09/12 04:43:11;;;;;;;58.58;50.55;;;22.40;67.20;;;;;;5001582;28;91396;-64
2022/09/12 04:45:37;;;;;;;60.22;51.13;;;22.40;67.10;;;;;;5005948;27;95961;-64
2022/09/12 04:48:03;;;;;;;60.50;50.80;;;22.40;67.10;;;;;;5007760;27;91572;-64
2022/09/12 04:50:28;;;;;;;59.45;50.58;;;22.40;66.90;;;;;;5011331;27;89404;-64
2022/09/12 04:52:54;;;;;;;59.15;50.50;;;22.50;67.00;;;;;;5008444;27;91441;-63
2022/09/12 04:55:21;;;;;;;59.70;51.05;;;22.50;66.90;;;;;;5014592;28;91117;-64
2022/09/12 04:57:47;;;;;;;59.63;50.85;;;22.40;67.00;;;;;;5004502;27;90539;-63
2022/09/12 05:00:14;;;;;;;60.55;51.00;;;22.30;67.40;;;;;;5005627;28;97458;-64
2022/09/12 05:02:43;;;;;;;59.67;50.42;;;22.30;67.30;;;;;;5003821;27;91367;-65
2022/09/12 05:05:10;;;;;;;61.10;50.75;;;22.30;67.30;;;;;;5008749;28;95686;-64
2022/09/12 05:07:36;;;;;;;60.85;50.85;;;22.30;67.30;;;;;;5002791;27;91344;-64
2022/09/12 05:10:03;;;;;;;59.95;50.80;;;22.40;66.60;;;;;;5008268;27;90680;-64
2022/09/12 05:12:29;;;;;;;63.53;51.08;;;22.40;66.70;;;;;;5006733;27;91384;-63
2022/09/12 05:14:56;;;;;;;59.53;50.70;;;22.30;66.90;;;;;;5010903;27;90850;-64
2022/09/12 05:17:21;;;;;;;60.03;51.00;;;22.30;66.80;;;;;;5009536;28;90071;-64
2022/09/12 05:19:47;;;;;;;63.40;50.97;;;22.30;66.70;;;;;;5011211;28;90668;-64
2022/09/12 05:22:13;;;;;;;62.58;51.47;;;22.30;66.70;;;;;;5008230;27;94082;-64
2022/09/12 05:24:42;;;;;;;63.38;51.40;;;22.30;66.60;;;;;;5010243;27;90597;-63
2022/09/12 05:27:08;;;;;;;63.25;51.40;;;22.30;66.80;;;;;;5010477;28;91388;-64
2022/09/12 05:29:34;;;;;;;61.58;51.22;;;22.30;66.70;;;;;;4998044;27;90261;-63
2022/09/12 05:32:01;;;;;;;60.92;51.42;;;22.40;66.30;;;;;;5001514;27;93047;-64
2022/09/12 05:34:26;;;;;;;63.63;51.65;;;22.50;66.50;;;;;;5004843;28;93873;-64
2022/09/12 05:36:52;;;;;;;62.67;51.85;;;22.40;65.90;;;;;;5011899;28;95423;-64
2022/09/12 05:39:18;;;;;;;62.53;51.05;;;22.50;65.80;;;;;;5007690;28;89123;-64
2022/09/12 05:41:44;;;;;;;64.30;51.47;;;22.40;65.90;;;;;;4993565;27;93189;-62
2022/09/12 05:44:13;;;;;;;66.72;52.28;;;22.40;66.20;;;;;;4994970;27;96268;-61
2022/09/12 05:46:41;;;;;;;63.97;51.95;;;22.50;66.20;;;;;;4999938;27;91824;-62
2022/09/12 05:49:10;;;;;;;65.22;52.35;;;22.60;65.70;;;;;;5005017;27;94581;-63
2022/09/12 05:51:38;;;;;;;64.75;52.25;;;22.60;65.30;;;;;;5008300;28;94352;-61
2022/09/12 05:54:06;;;;;;;66.70;52.55;;;22.60;65.30;;;;;;5000671;28;91987;-62
2022/09/12 05:56:35;;;;;;;68.28;52.58;;;22.50;65.60;;;;;;5006021;27;90098;-62
2022/09/12 05:59:04;;;;;;;66.30;51.95;;;22.50;65.10;;;;;;5008825;28;90231;-62
2022/09/12 06:01:31;;;;;;;64.13;52.03;;;22.60;64.80;;;;;;5003997;27;91993;-63
2022/09/12 06:03:59;;;;;;;65.15;52.13;;;22.70;64.40;;;;;;5002370;28;91191;-63
2022/09/12 06:06:26;;;;;;;66.40;52.15;;;22.70;63.90;;;;;;5003769;27;90687;-62
2022/09/12 06:08:56;;;;;;;71.68;52.85;;;22.70;63.90;;;;;;4988531;27;93710;-62
2022/09/12 06:11:27;;;;;;;68.22;52.67;;;22.70;63.60;;;;;;5007464;28;92356;-61
2022/09/12 06:13:55;;;;;;;69.63;53.08;;;22.70;63.80;;;;;;5006238;28;91666;-59
2022/09/12 06:16:23;;;;;;;68.75;53.65;;;22.80;63.30;;;;;;4998502;27;94529;-60
2022/09/12 06:18:52;;;;;;;69.95;53.38;;;22.80;63.00;;;;;;4994030;27;91587;-60
2022/09/12 06:21:19;;;;;;;65.63;53.00;;;22.90;62.70;;;;;;5002933;27;95232;-62
2022/09/12 06:23:45;;;;;;;66.28;52.97;;;22.90;62.30;;;;;;4998748;27;92933;-61
2022/09/12 06:26:11;;;;;;;68.47;53.20;;;22.90;62.10;;;;;;4990579;27;90812;-61
2022/09/12 06:28:39;;;;;;;68.38;53.33;;;23.00;61.90;;;;;;4995206;27;91808;-64
2022/09/12 06:31:08;;;;;;;74.85;53.53;;;23.00;61.80;;;;;;4999031;27;94620;-60
2022/09/12 06:33:35;;;;;;;69.30;52.75;;;23.00;61.70;;;;;;5001342;28;93208;-63
2022/09/12 06:36:12;;;;;;;67.45;53.00;;;23.00;61.60;;;;;;4984583;27;94453;-64
2022/09/12 06:38:38;;;;;;;69.03;53.00;;;23.00;61.40;;;;;;4991592;27;90660;-64
2022/09/12 06:41:06;;;;;;;67.13;53.25;;;23.00;61.70;;;;;;4988275;27;96208;-64
2022/09/12 06:43:32;;;;;;;65.95;52.42;;;22.90;61.70;;;;;;4988961;27;92058;-64
2022/09/12 06:45:58;;;;;;;66.75;52.35;;;22.80;61.90;;;;;;4991379;27;90687;-64
2022/09/12 06:48:24;;;;;;;67.18;52.20;;;22.80;61.80;;;;;;4996201;27;90249;-64
2022/09/12 06:51:01;;;;;;;66.75;52.78;;;22.80;61.70;;;;;;4996701;27;91225;-64
2022/09/12 06:53:28;;;;;;;69.13;52.60;;;22.80;61.50;;;;;;4996891;27;96359;-61
2022/09/12 06:56:17;;;;;;;70.88;52.70;;;23.00;62.30;;;;;;5007383;27;94553;-60
2022/09/12 06:58:44;;;;;;;67.32;52.70;;;23.00;61.40;;;;;;4995514;28;89921;-63
2022/09/12 07:01:16;;;;;;;68.80;52.83;;;23.00;61.50;;;;;;4993924;27;92079;-64
2022/09/12 07:03:47;;;;;;;70.25;52.78;;;23.00;61.20;;;;;;5013646;28;91217;-61
2022/09/12 07:06:15;;;;;;;66.85;52.25;;;23.00;61.20;;;;;;5009431;28;89788;-60
2022/09/12 07:08:41;;;;;;;67.88;52.38;;;23.00;61.20;;;;;;5004483;28;91586;-61
2022/09/12 07:11:11;;;;;;;72.32;52.53;;;23.10;61.30;;;;;;5001879;28;91208;-59
2022/09/12 07:13:38;;;;;;;70.70;53.20;;;23.10;61.00;;;;;;5003673;28;91125;-62
2022/09/12 07:16:05;;;;;;;69.97;52.60;;;23.10;61.20;;;;;;4997582;28;92052;-66
2022/09/12 07:18:32;;;;;;;68.90;52.25;;;23.10;61.20;;;;;;5019013;27;88990;-60
2022/09/12 07:21:01;;;;;;;69.20;52.78;;;23.10;61.30;;;;;;5012545;28;92186;-59
2022/09/12 07:23:28;;;;;;;66.82;52.40;;;23.10;61.20;;;;;;5005479;28;95345;-61
2022/09/12 07:25:58;;;;;;;69.72;52.15;;;23.20;60.90;;;;;;4998920;28;91253;-60
2022/09/12 07:28:25;;;;;;;69.35;52.47;;;23.10;61.00;;;;;;5001945;27;96259;-58
2022/09/12 07:30:52;;;;;;;77.72;54.17;;;23.10;61.00;;;;;;4997735;27;91431;-59
2022/09/12 07:33:23;;;;;;;75.20;54.22;;;23.00;59.70;;;;;;5016989;28;90813;-60
2022/09/12 07:35:48;;;;;;;84.33;55.07;;;22.70;61.20;;;;;;5003520;27;90157;-57
2022/09/12 07:38:15;;;;;;;74.25;54.15;;;22.30;62.20;;;;;;5000492;28;92771;-59
2022/09/12 07:40:42;;;;;;;76.47;55.95;;;22.00;63.40;;;;;;4995424;28;91412;-58
2022/09/12 07:43:09;;;;;;;71.97;53.70;;;21.90;62.90;;;;;;5004755;27;90735;-58
2022/09/12 07:45:35;;;;;;;78.15;54.72;;;21.60;65.30;;;;;;5000240;27;90236;-57
2022/09/12 07:48:01;;;;;;;74.70;55.33;;;21.60;65.90;;;;;;5000228;27;90508;-55
2022/09/12 07:50:26;;;;;;;85.05;55.78;;;21.50;65.80;;;;;;4995667;27;91934;-61
2022/09/12 07:52:55;;;;;;;74.53;55.63;;;21.40;65.50;;;;;;5010353;28;91808;-61
2022/09/12 07:55:21;;;;;;;73.97;54.60;;;21.30;67.20;;;;;;5015082;28;90134;-56
2022/09/12 07:57:50;;;;;;;69.28;54.33;;;21.30;67.80;;;;;;5007486;27;96019;-56
2022/09/12 08:00:17;;;;;;;69.15;54.95;;;21.20;67.30;;;;;;5007339;28;96211;-58
2022/09/12 08:02:43;;;;;;;68.18;53.70;;;21.10;67.40;;;;;;5010660;27;91844;-57
2022/09/12 08:05:09;;;;;;;71.03;55.28;;;21.20;67.90;;;;;;5000729;27;91032;-55
2022/09/12 08:07:35;;;;;;;69.00;55.90;;;21.10;66.80;;;;;;5015051;28;91734;-57
2022/09/12 08:10:01;;;;;;;65.90;54.88;;;21.20;67.00;;;;;;5014143;28;91117;-59
2022/09/12 08:12:27;;;;;;;69.80;56.80;;;21.30;68.10;;;;;;5016025;28;95240;-58
2022/09/12 08:14:53;;;;;;;68.30;55.78;;;21.40;66.60;;;;;;5008663;28;92106;-56
2022/09/12 08:17:19;;;;;;;69.90;56.53;;;21.40;67.10;;;;;;5004533;27;91160;-57
2022/09/12 08:19:45;;;;;;;69.70;57.03;;;21.40;66.80;;;;;;5006371;28;91998;-55
2022/09/12 08:22:12;;;;;;;69.72;56.70;;;21.40;66.20;;;;;;5015951;27;91272;-55
2022/09/12 08:24:40;;;;;;;66.47;55.50;;;21.40;66.10;;;;;;5002878;27;93542;-55
2022/09/12 08:27:06;;;;;;;64.57;55.17;;;21.50;67.10;;;;;;5006334;28;90203;-55
2022/09/12 08:29:32;;;;;;;69.00;55.67;;;21.70;66.20;;;;;;5003423;27;96388;-57
2022/09/12 08:31:58;;;;;;;66.18;54.80;;;21.60;66.40;;;;;;5003918;28;95387;-58
2022/09/12 08:34:25;;;;;;;65.07;54.72;;;21.70;66.50;;;;;;5012352;28;90057;-60
2022/09/12 08:36:53;;;;;;;68.22;54.13;;;21.80;66.00;;;;;;5022962;27;90829;-57
2022/09/12 08:39:19;;;;;;;64.97;53.22;;;22.00;65.80;;;;;;5005832;27;99467;-59
2022/09/12 08:41:55;;;;;;;64.95;53.88;;;21.90;65.90;;;;;;5001914;27;92055;-58
2022/09/12 08:44:33;;;;;;;63.17;52.50;;;21.90;65.40;;;;;;5009188;27;89869;-56
2022/09/12 08:47:10;;;;;;;63.22;53.08;;;22.10;65.50;;;;;;5000758;28;89534;-52
2022/09/12 08:49:52;;;;;;;65.40;53.47;;;22.10;65.80;;;;;;5005111;28;90904;-56
2022/09/12 08:52:21;;;;;;;65.97;53.92;;;22.10;65.50;;;;;;5011827;28;90959;-61
2022/09/12 08:54:46;;;;;;;66.32;52.15;;;22.40;64.50;;;;;;4997819;27;91121;-56
2022/09/12 08:57:14;;;;;;;67.18;53.85;;;22.40;65.40;;;;;;4998456;27;92011;-58
2022/09/12 08:59:44;;;;;;;64.25;52.75;;;22.50;63.60;;;;;;5006962;27;91548;-57
2022/09/12 09:02:28;;;;;;;65.77;53.17;;;22.50;64.10;;;;;;5003956;27;90879;-55
2022/09/12 09:05:13;;;;;;;63.38;52.75;;;22.70;63.50;;;;;;5009127;27;92820;-59
2022/09/12 09:08:07;;;;;;;65.78;53.03;;;22.70;62.90;;;;;;5005766;28;90265;-59
2022/09/12 09:10:52;;;;;;;67.45;53.05;;;22.70;63.90;;;;;;5008491;28;93238;-60
2022/09/12 09:16:40;;;;;;;63.13;52.40;;;22.90;62.20;;;;;;5001648;28;91423;-58
2022/09/12 09:19:21;;;;;;;65.17;52.90;;;22.90;62.40;;;;;;5010813;27;89655;-57
2022/09/12 09:22:16;;;;;;;64.65;52.42;;;23.00;62.00;;;;;;5008885;28;90214;-57
2022/09/12 09:24:50;;;;;;;65.25;53.38;;;23.00;62.30;;;;;;5002394;27;89653;-59
2022/09/12 09:27:21;;;;;;;65.97;52.70;;;23.00;62.20;;;;;;5013705;28;90214;-58
2022/09/12 09:29:52;;;;;;;64.28;52.65;;;23.00;62.30;;;;;;5017821;28;90288;-59
2022/09/12 09:32:23;;;;;;;64.57;53.00;;;23.10;61.70;;;;;;5012923;28;92124;-59
2022/09/12 09:34:50;;;;;;;63.70;53.15;;;23.20;61.20;;;;;;5004127;27;92062;-59
2022/09/12 09:37:30;;;;;;;67.22;53.22;;;23.20;61.20;;;;;;5008328;28;90026;-58
2022/09/12 09:40:01;;;;;;;64.47;52.40;;;23.30;60.40;;;;;;5007719;28;90807;-57
2022/09/12 09:42:46;;;;;;;65.05;52.47;;;23.30;61.10;;;;;;5004197;27;91698;-55
2022/09/12 09:45:19;;;;;;;62.60;51.88;;;23.40;60.30;;;;;;5012686;27;107010;-54
2022/09/12 09:47:51;;;;;;;62.70;51.80;;;23.40;60.60;;;;;;4993531;28;90672;-58
2022/09/12 09:50:18;;;;;;;65.22;52.35;;;23.50;61.90;;;;;;4998023;27;95110;-63
2022/09/12 09:52:45;;;;;;;63.90;52.15;;;23.60;62.50;;;;;;4997933;28;95237;-61
2022/09/12 09:55:26;;;;;;;66.97;51.83;;;23.80;61.80;;;;;;4999526;27;97161;-59
2022/09/12 09:57:52;;;;;;;65.97;52.00;;;23.90;61.60;;;;;;5012886;27;91357;-62
2022/09/12 10:00:34;;;;;;;64.57;52.22;;;24.00;61.40;;;;;;5023402;28;90294;-62
2022/09/12 10:03:08;;;;;;;66.68;52.58;;;24.10;61.10;;;;;;5028587;28;90160;-62
2022/09/12 10:05:53;;;;;;;64.68;52.22;;;24.20;61.60;;;;;;5017778;28;95550;-60
2022/09/12 10:08:26;;;;;;;64.85;52.45;;;24.20;60.60;;;;;;5024530;27;90156;-61
2022/09/12 10:10:57;;;;;;;64.32;52.35;;;24.20;60.40;;;;;;5024813;28;89715;-63
2022/09/12 10:13:50;;;;;;;66.03;52.47;;;24.30;60.30;;;;;;5026194;27;91234;-62
2022/09/12 10:16:20;;;;;;;65.07;52.60;;;24.30;60.20;;;;;;5023746;28;91277;-60
2022/09/12 10:18:49;;;;;;;62.92;52.17;;;24.40;60.10;;;;;;5020900;27;89709;-62
2022/09/12 10:21:36;;;;;;;63.30;52.38;;;24.40;60.00;;;;;;5023661;27;97750;-62
2022/09/12 10:24:20;;;;;;;63.65;52.35;;;24.40;60.00;;;;;;5012197;28;91011;-62
2022/09/12 10:27:05;;;;;;;63.00;52.08;;;24.40;59.90;;;;;;5021469;28;92403;-62
2022/09/12 10:29:38;;;;;;;64.43;52.47;;;24.50;59.90;;;;;;5024575;27;90069;-61
2022/09/12 10:32:07;;;;;;;64.32;52.38;;;24.50;59.90;;;;;;5018262;28;89953;-62
2022/09/12 10:34:38;;;;;;;63.33;52.17;;;24.50;59.90;;;;;;5017412;28;91011;-62
2022/09/12 10:37:09;;;;;;;65.10;52.28;;;24.50;59.80;;;;;;5025824;27;90683;-62
2022/09/12 10:39:37;;;;;;;64.60;52.30;;;24.50;59.70;;;;;;5017826;28;93126;-61
2022/09/12 10:42:07;;;;;;;64.07;52.33;;;24.50;60.00;;;;;;5010585;27;92225;-63
2022/09/12 10:44:34;;;;;;;63.42;51.92;;;24.50;59.70;;;;;;5008641;28;90779;-62
2022/09/12 10:47:19;;;;;;;64.93;52.05;;;24.60;59.60;;;;;;5026928;27;89939;-62
2022/09/12 10:49:45;;;;;;;63.05;51.97;;;24.60;59.70;;;;;;5018974;27;93789;-62
2022/09/12 10:52:22;;;;;;;63.60;52.25;;;24.60;59.70;;;;;;5018012;28;89836;-62
2022/09/12 10:54:49;;;;;;;62.90;52.10;;;24.60;59.60;;;;;;5016836;27;91011;-61
2022/09/12 10:57:50;;;;;;;65.10;52.00;;;24.60;59.60;;;;;;5019869;28;95758;-62
2022/09/12 11:00:19;;;;;;;;;;;24.70;59.60;;;;;;5018484;27;90267;-62
2022/09/12 11:03:08;;;;;;;62.67;51.92;;;24.70;59.60;;;;;;5023690;27;90361;-62
2022/09/12 11:05:36;;;;;;;63.10;52.03;;;24.70;59.60;;;;;;5023161;28;91176;-62
2022/09/12 11:08:17;;;;;;;62.72;52.28;;;24.70;59.50;;;;;;5024933;27;91148;-62
2022/09/12 11:11:20;;;;;;;64.57;51.83;;;24.70;59.50;;;;;;5022578;28;90779;-61
2022/09/12 11:14:13;;;;;;;64.35;52.15;;;24.70;59.50;;;;;;5015886;28;89778;-61
2022/09/12 11:17:16;;;;;;;62.80;51.83;;;24.80;59.50;;;;;;5012386;28;95104;-60
2022/09/12 11:20:03;;;;;;;63.88;52.25;;;24.70;59.50;;;;;;4994538;27;91873;-58
2022/09/12 11:22:44;;;;;;;65.78;52.05;;;24.80;60.00;;;;;;5008590;28;89606;-59
2022/09/12 11:25:21;;;;;;;63.45;52.05;;;24.70;60.10;;;;;;4999627;27;90532;-59
2022/09/12 11:27:59;;;;;;;63.45;51.83;;;24.80;60.30;;;;;;5003135;28;91353;-61
2022/09/12 11:30:26;;;;;;;64.05;52.15;;;24.90;60.40;;;;;;5009195;28;90836;-64
2022/09/12 11:33:20;;;;;;;64.75;51.97;;;24.90;59.50;;;;;;5007002;27;90653;-62
2022/09/12 11:35:49;;;;;;;72.82;52.22;;;24.90;59.20;;;;;;4997295;28;93779;-60
2022/09/12 11:38:46;;;;;;;63.08;51.80;;;25.00;59.60;;;;;;4994877;27;91068;-63
2022/09/12 11:41:26;;;;;;;63.22;51.67;;;24.90;59.10;;;;;;4993192;27;91196;-57
2022/09/12 11:44:11;;;;;;;63.67;51.72;;;25.00;59.30;;;;;;4999691;27;95662;-59
2022/09/12 11:46:41;;;;;;;63.47;51.67;;;25.00;59.60;;;;;;5009230;27;90183;-60
2022/09/12 11:49:12;;;;;;;63.78;51.63;;;25.00;59.60;;;;;;5005940;28;91708;-58
2022/09/12 11:52:16;;;;;;;64.55;51.90;;;25.00;59.50;;;;;;4998667;27;93178;-57
2022/09/12 11:54:47;;;;;;;63.42;51.58;;;25.00;59.60;;;;;;5006183;27;90752;-60
2022/09/12 11:57:29;;;;;;;65.72;52.20;;;25.00;59.30;;;;;;5011613;27;90059;-61
2022/09/12 12:00:01;;;;;;;64.53;51.92;;;25.20;59.10;;;;;;5005437;27;90242;-62
2022/09/12 12:02:29;;;;;;;63.33;51.67;;;25.10;59.20;;;;;;5008554;27;90051;-62
2022/09/12 12:05:04;;;;;;;62.85;51.58;;;25.10;59.10;;;;;;5002359;28;90589;-62
2022/09/12 12:07:40;;;;;;;64.07;51.58;;;25.10;59.20;;;;;;5011111;28;91689;-62
2022/09/12 12:10:20;;;;;;;65.80;51.72;;;25.20;59.00;;;;;;5011213;28;92102;-59
2022/09/12 12:12:47;;;;;;;63.38;51.55;;;25.20;58.80;;;;;;5000683;28;92225;-56
2022/09/12 12:15:15;;;;;;;63.00;51.55;;;25.20;58.70;;;;;;5006427;27;91443;-60
2022/09/12 12:17:41;;;;;;;64.45;51.83;;;25.30;58.80;;;;;;5007472;28;89841;-59
2022/09/12 12:20:16;;;;;;;64.93;51.55;;;25.20;58.70;;;;;;5007316;27;94324;-61
2022/09/12 12:22:53;;;;;;;64.68;51.42;;;25.30;58.40;;;;;;5004652;27;94126;-57
2022/09/12 12:25:18;;;;;;;66.78;51.45;;;25.30;58.40;;;;;;4995011;27;94054;-61
2022/09/12 12:28:00;;;;;;;63.88;51.60;;;25.30;58.40;;;;;;5008409;27;90733;-61
2022/09/12 12:30:52;;;;;;;65.57;51.58;;;25.30;58.40;;;;;;5006332;28;91507;-57
2022/09/12 12:33:20;;;;;;;64.28;51.78;;;25.40;58.50;;;;;;4987486;27;93334;-60
2022/09/12 12:35:58;;;;;;;63.95;51.88;;;25.40;58.50;;;;;;4997171;28;92354;-55
2022/09/12 12:38:37;;;;;;;63.88;51.60;;;25.40;58.40;;;;;;5005796;27;89704;-58
2022/09/12 12:41:18;;;;;;;65.65;51.63;;;25.40;58.50;;;;;;5005796;27;91039;-62
2022/09/12 12:43:45;;;;;;;64.28;51.85;;;25.50;58.40;;;;;;5004173;27;90912;-53
2022/09/12 12:46:13;;;;;;;65.70;51.83;;;25.50;58.90;;;;;;4998874;27;92631;-64
2022/09/12 12:49:02;;;;;;;62.90;51.47;;;25.50;58.30;;;;;;5004746;27;90083;-61
2022/09/12 12:51:33;;;;;;;62.90;51.42;;;25.50;58.20;;;;;;5006388;28;92218;-61
2022/09/12 12:54:02;;;;;;;66.22;51.60;;;25.50;58.20;;;;;;5005227;27;92622;-57
2022/09/12 12:56:41;;;;;;;63.05;51.42;;;25.60;58.20;;;;;;4999628;28;91718;-54